createdAt,value
2022-11-06T00:00:14.076Z,0.60
2022-11-06T00:01:14.107Z,0.65
2022-11-06T00:02:20.208Z,0.62
2022-11-06T00:03:15.104Z,0.66
2022-11-06T00:04:14.034Z,0.60
2022-11-06T00:05:14.023Z,0.61
2022-11-06T00:06:14.017Z,0.57
2022-11-06T00:07:14.024Z,0.58
2022-11-06T00:08:14.463Z,0.62
2022-11-06T00:09:14.064Z,0.68
2022-11-06T00:10:13.998Z,0.57
2022-11-06T00:11:13.962Z,0.60
2022-11-06T00:12:13.950Z,0.66
2022-11-06T00:13:13.954Z,0.69
2022-11-06T00:14:13.948Z,0.66
2022-11-06T00:15:13.933Z,0.72
2022-11-06T00:16:13.910Z,0.72
2022-11-06T00:17:13.889Z,0.73
2022-11-06T00:18:14.371Z,0.65
2022-11-06T00:19:13.973Z,0.72
2022-11-06T00:20:13.855Z,0.70
2022-11-06T00:21:13.848Z,0.73
2022-11-06T00:22:13.832Z,0.66
2022-11-06T00:23:13.844Z,0.68
2022-11-06T00:24:13.810Z,0.66
2022-11-06T00:25:13.841Z,0.58
2022-11-06T00:26:13.902Z,0.66
2022-11-06T00:27:13.780Z,0.70
2022-11-06T00:28:14.268Z,0.55
2022-11-06T00:29:13.760Z,0.57
2022-11-06T00:30:13.743Z,0.58
2022-11-06T00:31:13.764Z,0.61
2022-11-06T00:32:13.721Z,0.69
2022-11-06T00:33:13.707Z,0.58
2022-11-06T00:34:13.702Z,0.53
2022-11-06T00:35:13.688Z,0.58
2022-11-06T00:36:13.703Z,0.60
2022-11-06T00:37:13.677Z,0.58
2022-11-06T00:38:14.077Z,0.55
2022-11-06T00:39:13.642Z,0.62
2022-11-06T00:40:13.658Z,0.57
2022-11-06T00:41:13.623Z,0.61
2022-11-06T00:42:13.633Z,0.55
2022-11-06T00:43:13.613Z,0.57
2022-11-06T00:44:13.588Z,0.61
2022-11-06T00:45:13.597Z,0.58
2022-11-06T00:46:13.590Z,0.62
2022-11-06T00:47:13.552Z,0.58
2022-11-06T00:48:13.965Z,0.61
2022-11-06T00:49:13.569Z,0.65
2022-11-06T00:50:13.522Z,0.60
2022-11-06T00:51:13.517Z,0.50
2022-11-06T00:52:13.499Z,0.47
2022-11-06T00:53:13.491Z,0.50
2022-11-06T00:54:13.513Z,0.44
2022-11-06T00:55:13.480Z,0.46
2022-11-06T00:56:13.456Z,0.39
2022-11-06T00:57:13.446Z,0.39
2022-11-06T00:58:13.978Z,0.41
2022-11-06T00:59:13.444Z,0.46
2022-11-06T01:00:13.414Z,0.39
2022-11-06T01:01:13.432Z,0.41
2022-11-06T01:02:13.489Z,0.47
2022-11-06T01:03:13.440Z,0.41
2022-11-06T01:04:13.366Z,0.41
2022-11-06T01:05:13.378Z,0.33
2022-11-06T01:06:13.374Z,0.39
2022-11-06T01:07:13.439Z,0.41
2022-11-06T01:08:13.686Z,0.38
2022-11-06T01:09:13.313Z,0.35
2022-11-06T01:10:13.325Z,0.29
2022-11-06T01:11:13.289Z,0.32
2022-11-06T01:12:14.406Z,0.31
2022-11-06T01:13:13.291Z,0.29
2022-11-06T01:14:13.281Z,0.28
2022-11-06T01:15:13.263Z,0.26
2022-11-06T01:16:13.254Z,0.35
2022-11-06T01:17:13.226Z,0.29
2022-11-06T01:18:13.532Z,0.23
2022-11-06T01:19:13.212Z,0.21
2022-11-06T01:20:13.198Z,0.31
2022-11-06T01:21:13.200Z,0.28
2022-11-06T01:22:13.176Z,0.23
2022-11-06T01:23:13.159Z,0.28
2022-11-06T01:24:13.243Z,0.23
2022-11-06T01:25:13.169Z,0.29
2022-11-06T01:26:13.144Z,0.31
2022-11-06T01:27:25.965Z,0.29
2022-11-06T01:28:14.401Z,0.29
2022-11-06T01:29:13.813Z,0.29
2022-11-06T01:30:13.117Z,0.24
2022-11-06T01:31:13.081Z,0.31
2022-11-06T01:32:13.079Z,0.26
2022-11-06T01:33:15.750Z,0.15
2022-11-06T01:34:13.034Z,0.21
2022-11-06T01:35:13.024Z,0.24
2022-11-06T01:36:13.028Z,0.31
2022-11-06T01:37:14.708Z,0.17
2022-11-06T01:38:13.190Z,0.24
2022-11-06T01:39:12.985Z,0.15
2022-11-06T01:40:12.966Z,0.24
2022-11-06T01:41:12.956Z,0.17
2022-11-06T01:42:13.034Z,0.11
2022-11-06T01:43:12.949Z,0.15
2022-11-06T01:44:12.942Z,0.23
2022-11-06T01:45:12.914Z,0.26
2022-11-06T01:46:13.081Z,0.23
2022-11-06T01:47:12.913Z,0.28
2022-11-06T01:48:13.238Z,0.24
2022-11-06T01:49:12.911Z,0.21
2022-11-06T01:50:12.857Z,0.28
2022-11-06T01:51:12.846Z,0.24
2022-11-06T01:52:12.830Z,0.29
2022-11-06T01:53:12.846Z,0.28
2022-11-06T01:54:12.821Z,0.24
2022-11-06T01:55:12.816Z,0.29
2022-11-06T01:56:12.791Z,0.26
2022-11-06T01:57:12.783Z,0.26
2022-11-06T01:58:13.108Z,0.29
2022-11-06T01:59:12.756Z,0.28
2022-11-06T02:00:12.750Z,0.24
2022-11-06T02:01:12.746Z,0.29
2022-11-06T02:02:12.943Z,0.29
2022-11-06T02:03:12.861Z,0.32
2022-11-06T02:04:12.699Z,0.29
2022-11-06T02:05:12.708Z,0.29
2022-11-06T02:06:12.678Z,0.32
2022-11-06T02:07:12.697Z,0.36
2022-11-06T02:08:12.905Z,0.41
2022-11-06T02:09:12.645Z,0.35
2022-11-06T02:10:12.659Z,0.31
2022-11-06T02:11:12.633Z,0.41
2022-11-06T02:12:12.610Z,0.42
2022-11-06T02:13:12.639Z,0.44
2022-11-06T02:14:12.592Z,0.41
2022-11-06T02:15:12.803Z,0.38
2022-11-06T02:16:12.566Z,0.42
2022-11-06T02:17:12.555Z,0.32
2022-11-06T02:18:12.952Z,0.29
2022-11-06T02:19:12.544Z,0.32
2022-11-06T02:20:12.544Z,0.39
2022-11-06T02:21:12.515Z,0.32
2022-11-06T02:22:12.502Z,0.41
2022-11-06T02:23:12.489Z,0.28
2022-11-06T02:24:12.483Z,0.39
2022-11-06T02:25:12.478Z,0.38
2022-11-06T02:26:12.475Z,0.38
2022-11-06T02:27:12.446Z,0.32
2022-11-06T02:28:12.741Z,0.31
2022-11-06T02:29:12.421Z,0.33
2022-11-06T02:30:12.415Z,0.33
2022-11-06T02:31:12.435Z,0.29
2022-11-06T02:32:12.388Z,0.24
2022-11-06T02:33:12.382Z,0.23
2022-11-06T02:34:12.405Z,0.31
2022-11-06T02:35:12.355Z,0.26
2022-11-06T02:36:12.345Z,0.29
2022-11-06T02:37:12.359Z,0.33
2022-11-06T02:38:12.710Z,0.28
2022-11-06T02:39:12.334Z,0.28
2022-11-06T02:40:12.320Z,0.36
2022-11-06T02:41:12.310Z,0.29
2022-11-06T02:42:12.278Z,0.31
2022-11-06T02:43:12.283Z,0.24
2022-11-06T02:44:12.258Z,0.18
2022-11-06T02:45:12.244Z,0.26
2022-11-06T02:46:12.253Z,0.35
2022-11-06T02:47:12.224Z,0.29
2022-11-06T02:48:12.470Z,0.32
2022-11-06T02:49:12.246Z,0.26
2022-11-06T02:50:12.289Z,0.29
2022-11-06T02:51:12.201Z,0.28
2022-11-06T02:52:12.168Z,0.26
2022-11-06T02:53:12.161Z,0.35
2022-11-06T02:54:12.144Z,0.31
2022-11-06T02:55:12.185Z,0.29
2022-11-06T02:56:12.122Z,0.26
2022-11-06T02:57:12.110Z,0.31
2022-11-06T02:58:12.414Z,0.26
2022-11-06T02:59:12.086Z,0.26
2022-11-06T03:00:12.085Z,0.26
2022-11-06T03:01:12.100Z,0.23
2022-11-06T03:02:12.274Z,0.24
2022-11-06T03:03:12.046Z,0.31
2022-11-06T03:04:12.055Z,0.24
2022-11-06T03:05:12.030Z,0.38
2022-11-06T03:06:12.114Z,0.28
2022-11-06T03:07:12.063Z,0.29
2022-11-06T03:08:12.426Z,0.41
2022-11-06T03:09:11.981Z,0.46
2022-11-06T03:10:13.293Z,0.47
2022-11-06T03:11:11.977Z,0.49
2022-11-06T03:12:11.942Z,0.47
2022-11-06T03:13:11.943Z,0.57
2022-11-06T03:14:11.922Z,0.57
2022-11-06T03:15:11.924Z,0.55
2022-11-06T03:16:11.921Z,0.57
2022-11-06T03:17:11.889Z,0.47
2022-11-06T03:18:12.350Z,0.47
2022-11-06T03:19:11.881Z,0.61
2022-11-06T03:20:11.864Z,0.58
2022-11-06T03:21:11.866Z,0.62
2022-11-06T03:22:11.850Z,0.62
2022-11-06T03:23:11.822Z,0.47
2022-11-06T03:24:11.841Z,0.49
2022-11-06T03:25:11.867Z,0.46
2022-11-06T03:26:11.809Z,0.51
2022-11-06T03:27:11.780Z,0.51
2022-11-06T03:28:12.175Z,0.49
2022-11-06T03:29:11.767Z,0.47
2022-11-06T03:30:16.172Z,0.42
2022-11-06T03:31:11.775Z,0.42
2022-11-06T03:32:11.725Z,0.49
2022-11-06T03:33:11.740Z,0.50
2022-11-06T03:34:11.701Z,0.50
2022-11-06T03:35:11.716Z,0.51
2022-11-06T03:36:11.761Z,0.46
2022-11-06T03:37:11.668Z,0.49
2022-11-06T03:38:12.177Z,0.46
2022-11-06T03:39:11.651Z,0.49
2022-11-06T03:40:11.630Z,0.49
2022-11-06T03:41:11.645Z,0.42
2022-11-06T03:42:11.627Z,0.44
2022-11-06T03:43:11.603Z,0.42
2022-11-06T03:44:11.592Z,0.42
2022-11-06T03:45:11.595Z,0.39
2022-11-06T03:46:11.585Z,0.39
2022-11-06T03:47:11.559Z,0.39
2022-11-06T03:48:12.025Z,0.36
2022-11-06T03:49:11.543Z,0.44
2022-11-06T03:50:11.542Z,0.32
2022-11-06T03:51:11.545Z,0.46
2022-11-06T03:52:11.547Z,0.28
2022-11-06T03:53:11.488Z,0.24
2022-11-06T03:54:11.526Z,0.24
2022-11-06T03:55:11.469Z,0.29
2022-11-06T03:56:11.481Z,0.31
2022-11-06T03:57:11.452Z,0.26
2022-11-06T03:58:11.711Z,0.23
2022-11-06T03:59:11.657Z,0.28
2022-11-06T04:00:11.458Z,0.26
2022-11-06T04:01:11.417Z,0.26
2022-11-06T04:02:11.655Z,0.29
2022-11-06T04:03:11.427Z,0.23
2022-11-06T04:04:11.367Z,0.28
2022-11-06T04:05:11.358Z,0.23
2022-11-06T04:06:11.359Z,0.21
2022-11-06T04:07:11.375Z,0.31
2022-11-06T04:08:11.667Z,0.18
2022-11-06T04:09:11.314Z,0.20
2022-11-06T04:10:11.320Z,0.15
2022-11-06T04:11:11.311Z,0.20
2022-11-06T04:12:11.318Z,0.15
2022-11-06T04:13:11.269Z,0.17
2022-11-06T04:14:11.257Z,0.14
2022-11-06T04:15:11.268Z,0.13
2022-11-06T04:16:11.240Z,0.08
2022-11-06T04:17:11.225Z,0.08
2022-11-06T04:18:11.693Z,0.08
2022-11-06T04:19:11.244Z,0.15
2022-11-06T04:20:11.189Z,0.08
2022-11-06T04:21:11.200Z,0.10
2022-11-06T04:22:11.187Z,0.04
2022-11-06T04:23:11.160Z,0.07
2022-11-06T04:24:11.160Z,0.10
2022-11-06T04:25:11.148Z,0.20
2022-11-06T04:26:11.177Z,0.07
2022-11-06T04:27:11.146Z,0.18
2022-11-06T04:28:11.396Z,0.11
2022-11-06T04:29:11.102Z,0.21
2022-11-06T04:30:11.098Z,0.15
2022-11-06T04:31:11.076Z,0.08
2022-11-06T04:32:11.078Z,0.04
2022-11-06T04:33:11.052Z,0.11
2022-11-06T04:34:11.046Z,0.10
2022-11-06T04:35:11.046Z,0.14
2022-11-06T04:36:11.061Z,0.17
2022-11-06T04:37:11.002Z,0.10
2022-11-06T04:38:11.454Z,0.13
2022-11-06T04:39:10.996Z,0.10
2022-11-06T04:40:10.969Z,0.07
2022-11-06T04:41:10.958Z,0.10
2022-11-06T04:42:11.028Z,0.03
2022-11-06T04:43:11.015Z,0.02
2022-11-06T04:44:10.926Z,0.07
2022-11-06T04:45:10.916Z,0.03
2022-11-06T04:46:10.901Z,0.00
2022-11-06T04:47:10.955Z,-0.04
2022-11-06T04:48:11.329Z,0.00
2022-11-06T04:49:10.898Z,-0.03
2022-11-06T04:50:10.883Z,0.00
2022-11-06T04:51:12.291Z,-0.03
2022-11-06T04:52:10.962Z,0.02
2022-11-06T04:53:10.828Z,0.03
2022-11-06T04:54:10.814Z,-0.01
2022-11-06T04:55:10.817Z,-0.04
2022-11-06T04:56:10.814Z,0.00
2022-11-06T04:57:10.780Z,0.03
2022-11-06T04:58:11.191Z,0.04
2022-11-06T04:59:10.932Z,-0.01
2022-11-06T05:00:10.764Z,-0.01
2022-11-06T05:01:10.848Z,-0.05
2022-11-06T05:02:10.824Z,-0.04
2022-11-06T05:03:10.726Z,0.02
2022-11-06T05:04:10.750Z,0.00
2022-11-06T05:05:10.694Z,-0.01
2022-11-06T05:06:10.714Z,0.00
2022-11-06T05:07:10.731Z,0.00
2022-11-06T05:08:11.005Z,0.03
2022-11-06T05:09:10.670Z,0.07
2022-11-06T05:10:11.079Z,0.08
2022-11-06T05:11:10.724Z,0.07
2022-11-06T05:12:10.618Z,0.08
2022-11-06T05:13:10.603Z,0.11
2022-11-06T05:14:10.696Z,0.08
2022-11-06T05:15:10.600Z,0.04
2022-11-06T05:16:10.569Z,0.00
2022-11-06T05:17:10.574Z,0.04
2022-11-06T05:18:11.038Z,0.08
2022-11-06T05:19:10.537Z,0.07
2022-11-06T05:20:10.553Z,0.03
2022-11-06T05:21:10.515Z,0.11
2022-11-06T05:22:10.520Z,0.08
2022-11-06T05:23:10.525Z,0.07
2022-11-06T05:24:10.484Z,0.08
2022-11-06T05:25:10.471Z,0.18
2022-11-06T05:26:10.460Z,0.15
2022-11-06T05:27:10.477Z,0.21
2022-11-06T05:28:10.705Z,0.15
2022-11-06T05:29:10.425Z,0.24
2022-11-06T05:30:10.434Z,0.31
2022-11-06T05:31:10.407Z,0.28
2022-11-06T05:32:10.416Z,0.20
2022-11-06T05:33:10.380Z,0.17
2022-11-06T05:34:10.379Z,0.17
2022-11-06T05:35:10.358Z,0.13
2022-11-06T05:36:10.388Z,0.26
2022-11-06T05:37:10.371Z,0.29
2022-11-06T05:38:10.617Z,0.28
2022-11-06T05:39:10.336Z,0.31
2022-11-06T05:40:10.322Z,0.21
2022-11-06T05:41:10.298Z,0.21
2022-11-06T05:42:10.282Z,0.21
2022-11-06T05:43:10.275Z,0.13
2022-11-06T05:44:10.285Z,0.13
2022-11-06T05:45:10.249Z,0.10
2022-11-06T05:46:29.643Z,0.14
2022-11-06T05:47:11.262Z,0.11
2022-11-06T05:48:10.438Z,0.10
2022-11-06T05:49:18.130Z,0.10
2022-11-06T05:50:10.268Z,0.13
2022-11-06T05:51:10.235Z,0.08
2022-11-06T05:52:10.291Z,0.10
2022-11-06T05:53:10.226Z,0.14
2022-11-06T05:54:10.190Z,0.10
2022-11-06T05:55:14.370Z,0.08
2022-11-06T05:56:11.148Z,0.08
2022-11-06T05:57:10.114Z,0.10
2022-11-06T05:58:10.227Z,0.03
2022-11-06T05:59:10.108Z,0.02
2022-11-06T06:00:10.089Z,0.02
2022-11-06T06:01:10.069Z,-0.01
2022-11-06T06:02:10.384Z,0.00
2022-11-06T06:03:10.136Z,0.03
2022-11-06T06:04:10.065Z,-0.03
2022-11-06T06:05:10.033Z,-0.04
2022-11-06T06:06:10.022Z,0.00
2022-11-06T06:07:10.033Z,-0.04
2022-11-06T06:08:10.239Z,-0.07
2022-11-06T06:09:09.981Z,-0.10
2022-11-06T06:10:10.021Z,-0.14
2022-11-06T06:11:09.964Z,-0.19
2022-11-06T06:12:09.985Z,-0.18
2022-11-06T06:13:09.970Z,-0.21
2022-11-06T06:14:09.939Z,-0.19
2022-11-06T06:15:09.922Z,-0.34
2022-11-06T06:16:09.950Z,-0.23
2022-11-06T06:17:09.906Z,-0.25
2022-11-06T06:18:09.999Z,-0.26
2022-11-06T06:19:09.894Z,-0.25
2022-11-06T06:20:09.860Z,-0.26
2022-11-06T06:21:09.857Z,-0.25
2022-11-06T06:22:09.851Z,-0.29
2022-11-06T06:23:09.888Z,-0.19
2022-11-06T06:24:09.883Z,-0.18
2022-11-06T06:25:19.511Z,-0.16
2022-11-06T06:26:10.818Z,-0.21
2022-11-06T06:27:09.789Z,-0.15
2022-11-06T06:28:10.124Z,-0.11
2022-11-06T06:29:09.813Z,-0.04
2022-11-06T06:30:09.805Z,-0.04
2022-11-06T06:31:09.739Z,0.11
2022-11-06T06:32:12.890Z,0.14
2022-11-06T06:33:09.735Z,0.11
2022-11-06T06:34:09.743Z,0.29
2022-11-06T06:35:09.697Z,0.21
2022-11-06T06:36:09.742Z,0.21
2022-11-06T06:37:09.688Z,0.24
2022-11-06T06:38:09.808Z,0.23
2022-11-06T06:39:09.654Z,0.28
2022-11-06T06:40:09.674Z,0.36
2022-11-06T06:41:09.634Z,0.39
2022-11-06T06:42:09.656Z,0.41
2022-11-06T06:43:09.652Z,0.47
2022-11-06T06:44:09.597Z,0.51
2022-11-06T06:45:09.593Z,0.53
2022-11-06T06:46:09.574Z,0.60
2022-11-06T06:47:09.563Z,0.61
2022-11-06T06:48:09.582Z,0.65
2022-11-06T06:49:09.552Z,0.66
2022-11-06T06:50:09.546Z,0.76
2022-11-06T06:51:09.517Z,0.73
2022-11-06T06:52:09.505Z,0.79
2022-11-06T06:53:09.512Z,0.78
2022-11-06T06:54:09.505Z,0.75
2022-11-06T06:55:09.483Z,0.87
2022-11-06T06:56:09.471Z,0.86
2022-11-06T06:57:09.452Z,0.94
2022-11-06T06:58:12.390Z,0.94
2022-11-06T06:59:10.446Z,0.90
2022-11-06T07:00:09.419Z,0.91
2022-11-06T07:01:09.481Z,0.94
2022-11-06T07:02:09.537Z,1.00
2022-11-06T07:03:09.408Z,0.98
2022-11-06T07:04:09.380Z,0.98
2022-11-06T07:05:09.359Z,1.05
2022-11-06T07:06:09.533Z,0.98
2022-11-06T07:07:09.362Z,0.97
2022-11-06T07:08:09.368Z,1.00
2022-11-06T07:09:09.322Z,1.14
2022-11-06T07:10:09.313Z,1.15
2022-11-06T07:11:09.294Z,1.09
2022-11-06T07:12:09.283Z,1.23
2022-11-06T07:13:09.307Z,1.26
2022-11-06T07:14:09.265Z,1.27
2022-11-06T07:15:09.272Z,1.37
2022-11-06T07:16:09.241Z,1.40
2022-11-06T07:17:09.230Z,1.47
2022-11-06T07:18:09.242Z,1.50
2022-11-06T07:19:09.231Z,1.65
2022-11-06T07:20:09.201Z,1.69
2022-11-06T07:21:09.182Z,1.79
2022-11-06T07:22:09.190Z,2.03
2022-11-06T07:23:09.197Z,2.05
2022-11-06T07:24:09.154Z,2.17
2022-11-06T07:25:09.140Z,2.28
2022-11-06T07:26:09.128Z,2.39
2022-11-06T07:27:09.119Z,2.38
2022-11-06T07:28:09.105Z,2.28
2022-11-06T07:29:09.131Z,2.36
2022-11-06T07:30:09.109Z,2.36
2022-11-06T07:31:09.070Z,2.42
2022-11-06T07:32:09.074Z,2.46
2022-11-06T07:33:09.067Z,2.56
2022-11-06T07:34:09.054Z,2.74
2022-11-06T07:35:09.042Z,2.74
2022-11-06T07:36:09.037Z,2.69
2022-11-06T07:37:09.004Z,2.71
2022-11-06T07:38:09.033Z,2.82
2022-11-06T07:39:08.983Z,2.82
2022-11-06T07:40:08.988Z,2.81
2022-11-06T07:41:08.999Z,2.81
2022-11-06T07:42:08.957Z,2.78
2022-11-06T07:43:08.938Z,2.77
2022-11-06T07:44:08.954Z,2.74
2022-11-06T07:45:08.914Z,2.82
2022-11-06T07:46:08.907Z,2.89
2022-11-06T07:47:08.939Z,3.10
2022-11-06T07:48:08.883Z,3.23
2022-11-06T07:49:08.876Z,3.43
2022-11-06T07:50:08.882Z,3.52
2022-11-06T07:51:08.964Z,3.48
2022-11-06T07:52:08.845Z,3.55
2022-11-06T07:53:08.844Z,3.69
2022-11-06T07:54:08.831Z,3.73
2022-11-06T07:55:08.807Z,3.62
2022-11-06T07:56:08.823Z,3.58
2022-11-06T07:57:08.805Z,3.57
2022-11-06T07:58:08.794Z,3.65
2022-11-06T07:59:08.780Z,3.58
2022-11-06T08:00:08.748Z,3.60
2022-11-06T08:01:10.287Z,3.72
2022-11-06T08:02:08.895Z,3.69
2022-11-06T08:03:08.716Z,3.73
2022-11-06T08:04:08.725Z,3.72
2022-11-06T08:05:09.351Z,3.66
2022-11-06T08:06:08.685Z,3.76
2022-11-06T08:07:08.671Z,3.90
2022-11-06T08:08:08.658Z,4.04
2022-11-06T08:09:08.659Z,4.06
2022-11-06T08:10:08.766Z,4.11
2022-11-06T08:11:08.655Z,4.09
2022-11-06T08:12:08.668Z,3.98
2022-11-06T08:13:08.600Z,4.02
2022-11-06T08:14:08.591Z,3.98
2022-11-06T08:15:08.614Z,4.02
2022-11-06T08:16:08.568Z,4.06
2022-11-06T08:17:08.593Z,4.15
2022-11-06T08:18:08.545Z,4.33
2022-11-06T08:19:08.541Z,4.18
2022-11-06T08:20:08.528Z,4.33
2022-11-06T08:21:08.533Z,4.33
2022-11-06T08:22:08.519Z,4.47
2022-11-06T08:23:08.529Z,4.54
2022-11-06T08:24:08.480Z,4.50
2022-11-06T08:25:08.474Z,4.58
2022-11-06T08:26:08.598Z,4.52
2022-11-06T08:27:08.462Z,4.51
2022-11-06T08:28:08.467Z,4.54
2022-11-06T08:29:08.459Z,4.47
2022-11-06T08:30:08.413Z,4.48
2022-11-06T08:31:08.399Z,4.55
2022-11-06T08:32:08.416Z,4.48
2022-11-06T08:33:08.375Z,4.42
2022-11-06T08:34:08.371Z,4.41
2022-11-06T08:35:08.375Z,4.47
2022-11-06T08:36:08.344Z,4.33
2022-11-06T08:37:08.357Z,4.50
2022-11-06T08:38:08.329Z,4.37
2022-11-06T08:39:08.316Z,4.44
2022-11-06T08:40:08.299Z,4.42
2022-11-06T08:41:08.354Z,4.41
2022-11-06T08:42:08.399Z,4.40
2022-11-06T08:43:08.289Z,4.47
2022-11-06T08:44:08.285Z,4.48
2022-11-06T08:45:08.244Z,4.59
2022-11-06T08:46:08.236Z,4.69
2022-11-06T08:47:08.239Z,4.70
2022-11-06T08:48:08.212Z,4.72
2022-11-06T08:49:08.241Z,4.84
2022-11-06T08:50:08.189Z,4.91
2022-11-06T08:51:08.179Z,4.92
2022-11-06T08:52:08.172Z,4.92
2022-11-06T08:53:08.325Z,4.92
2022-11-06T08:54:08.310Z,4.84
2022-11-06T08:55:15.918Z,4.86
2022-11-06T08:56:08.157Z,4.92
2022-11-06T08:57:08.117Z,4.97
2022-11-06T08:58:08.137Z,5.09
2022-11-06T08:59:08.114Z,5.06
2022-11-06T09:00:08.084Z,5.04
2022-11-06T09:01:08.101Z,5.02
2022-11-06T09:02:08.085Z,5.15
2022-11-06T09:03:08.081Z,5.06
2022-11-06T09:04:08.054Z,5.20
2022-11-06T09:05:08.030Z,5.15
2022-11-06T09:06:08.008Z,5.24
2022-11-06T09:07:08.015Z,5.22
2022-11-06T09:08:08.354Z,5.33
2022-11-06T09:10:24.574Z,5.30
2022-11-06T09:11:24.180Z,5.33
2022-11-06T09:12:24.351Z,5.31
2022-11-06T09:13:24.146Z,5.38
2022-11-06T09:14:24.064Z,5.30
2022-11-06T09:15:24.003Z,5.39
2022-11-06T09:16:24.076Z,5.45
2022-11-06T09:17:24.026Z,5.46
2022-11-06T09:18:23.967Z,5.48
2022-11-06T09:19:23.970Z,5.56
2022-11-06T09:20:24.033Z,5.57
2022-11-06T09:21:23.988Z,5.54
2022-11-06T09:22:23.947Z,5.68
2022-11-06T09:23:23.917Z,5.60
2022-11-06T09:25:01.265Z,5.64
2022-11-06T09:25:24.925Z,5.67
2022-11-06T09:26:24.570Z,5.68
2022-11-06T09:27:23.918Z,5.60
2022-11-06T09:28:23.857Z,5.68
2022-11-06T09:29:33.928Z,5.67
2022-11-06T09:30:23.859Z,5.82
2022-11-06T09:31:34.814Z,5.89
2022-11-06T09:32:27.605Z,5.85
2022-11-06T09:34:36.721Z,6.17
2022-11-06T09:35:36.353Z,6.31
2022-11-06T09:36:36.314Z,6.34
2022-11-06T09:37:36.118Z,6.37
2022-11-06T09:38:36.104Z,6.49
2022-11-06T09:39:36.058Z,6.43
2022-11-06T09:40:36.063Z,6.56
2022-11-06T09:41:36.027Z,6.62
2022-11-06T09:42:36.055Z,6.61
2022-11-06T09:44:04.604Z,6.74
2022-11-06T09:44:37.191Z,6.84
2022-11-06T09:45:36.024Z,6.84
2022-11-06T09:46:36.094Z,6.81
2022-11-06T09:47:35.983Z,6.85
2022-11-06T09:48:36.028Z,6.92
2022-11-06T09:49:36.046Z,7.02
2022-11-06T09:50:35.974Z,7.03
2022-11-06T09:51:36.126Z,6.95
2022-11-06T09:52:35.957Z,7.05
2022-11-06T09:53:35.879Z,7.07
2022-11-06T09:54:35.893Z,7.09
2022-11-06T09:55:35.843Z,7.13
2022-11-06T09:56:35.917Z,7.15
2022-11-06T09:57:35.807Z,7.15
2022-11-06T09:58:35.848Z,7.06
2022-11-06T09:59:35.819Z,7.17
2022-11-06T10:00:35.849Z,7.28
2022-11-06T10:01:36.078Z,7.17
2022-11-06T10:02:36.041Z,7.27
2022-11-06T10:03:35.927Z,7.42
2022-11-06T10:04:35.872Z,7.30
2022-11-06T10:05:35.846Z,7.34
2022-11-06T10:06:35.715Z,7.34
2022-11-06T10:07:35.758Z,7.31
2022-11-06T10:08:35.736Z,7.32
2022-11-06T10:09:35.738Z,7.34
2022-11-06T10:10:35.816Z,7.32
2022-11-06T10:11:35.733Z,7.20
2022-11-06T10:12:35.734Z,7.24
2022-11-06T10:13:35.646Z,7.28
2022-11-06T10:14:35.618Z,7.25
2022-11-06T10:15:35.637Z,7.27
2022-11-06T10:16:35.643Z,7.23
2022-11-06T10:17:35.645Z,7.21
2022-11-06T10:18:35.706Z,7.28
2022-11-06T10:19:35.583Z,7.35
2022-11-06T10:20:35.616Z,7.35
2022-11-06T10:21:35.639Z,7.30
2022-11-06T10:22:35.598Z,7.39
2022-11-06T10:23:35.593Z,7.39
2022-11-06T10:24:35.524Z,7.37
2022-11-06T10:25:35.840Z,7.40
2022-11-06T10:26:38.249Z,7.52
2022-11-06T10:27:35.628Z,7.48
2022-11-06T10:28:35.583Z,7.52
2022-11-06T10:29:35.507Z,7.49
2022-11-06T10:30:35.444Z,7.49
2022-11-06T10:31:35.448Z,7.43
2022-11-06T10:32:35.509Z,7.50
2022-11-06T10:33:35.399Z,7.49
2022-11-06T10:34:35.425Z,7.50
2022-11-06T10:35:35.398Z,7.52
2022-11-06T10:36:35.361Z,7.58
2022-11-06T10:37:35.363Z,7.53
2022-11-06T10:38:35.374Z,7.60
2022-11-06T10:39:35.374Z,7.60
2022-11-06T10:40:35.332Z,7.58
2022-11-06T10:41:35.307Z,7.64
2022-11-06T10:42:38.039Z,7.67
2022-11-06T10:43:35.307Z,7.72
2022-11-06T10:44:35.311Z,7.85
2022-11-06T10:45:35.268Z,7.85
2022-11-06T10:46:35.286Z,7.98
2022-11-06T10:47:35.293Z,7.93
2022-11-06T10:48:40.119Z,8.11
2022-11-06T10:49:36.256Z,8.15
2022-11-06T10:50:35.205Z,8.18
2022-11-06T10:51:35.348Z,8.34
2022-11-06T10:52:35.310Z,8.38
2022-11-06T10:53:35.169Z,8.52
2022-11-06T10:54:35.254Z,8.47
2022-11-06T10:55:35.168Z,8.43
2022-11-06T10:56:35.169Z,8.48
2022-11-06T10:57:35.146Z,8.53
2022-11-06T10:58:35.230Z,8.80
2022-11-06T10:59:35.114Z,8.77
2022-11-06T11:00:35.172Z,8.92
2022-11-06T11:01:35.257Z,8.92
2022-11-06T11:02:35.286Z,9.10
2022-11-06T11:03:35.118Z,8.92
2022-11-06T11:04:35.083Z,9.01
2022-11-06T11:05:35.062Z,9.05
2022-11-06T11:06:35.051Z,9.21
2022-11-06T11:07:35.055Z,9.21
2022-11-06T11:08:35.059Z,9.32
2022-11-06T11:09:35.001Z,9.39
2022-11-06T11:10:34.992Z,9.38
2022-11-06T11:11:35.063Z,9.42
2022-11-06T11:12:35.068Z,9.35
2022-11-06T11:13:35.041Z,9.36
2022-11-06T11:14:34.995Z,9.50
2022-11-06T11:15:34.954Z,9.48
2022-11-06T11:16:34.970Z,9.47
2022-11-06T11:17:34.994Z,9.54
2022-11-06T11:18:34.928Z,9.61
2022-11-06T11:19:34.892Z,9.58
2022-11-06T11:20:34.915Z,9.64
2022-11-06T11:21:35.007Z,9.60
2022-11-06T11:22:34.887Z,9.53
2022-11-06T11:23:35.071Z,9.66
2022-11-06T11:24:34.887Z,9.56
2022-11-06T11:25:34.812Z,9.40
2022-11-06T11:26:34.817Z,9.43
2022-11-06T11:27:34.814Z,9.54
2022-11-06T11:28:34.963Z,9.65
2022-11-06T11:29:34.792Z,9.66
2022-11-06T11:30:34.756Z,9.61
2022-11-06T11:31:34.822Z,9.64
2022-11-06T11:32:34.769Z,9.46
2022-11-06T11:33:34.847Z,9.40
2022-11-06T11:34:34.740Z,9.47
2022-11-06T11:35:34.996Z,9.38
2022-11-06T11:36:35.055Z,9.48
2022-11-06T11:37:34.748Z,9.36
2022-11-06T11:39:45.188Z,9.21
2022-11-06T11:40:45.069Z,9.21
2022-11-06T11:41:45.045Z,9.38
2022-11-06T11:42:44.961Z,9.42
2022-11-06T11:43:45.059Z,9.33
2022-11-06T11:44:44.900Z,9.36
2022-11-06T11:45:44.889Z,9.39
2022-11-06T11:46:44.894Z,9.28
2022-11-06T11:47:44.847Z,9.24
2022-11-06T11:48:44.833Z,9.39
2022-11-06T11:49:44.856Z,9.31
2022-11-06T11:50:44.811Z,9.36
2022-11-06T11:51:44.828Z,9.39
2022-11-06T11:52:44.810Z,9.36
2022-11-06T11:53:44.798Z,9.32
2022-11-06T11:54:44.780Z,9.36
2022-11-06T11:55:44.770Z,9.53
2022-11-06T11:57:03.515Z,9.58
2022-11-06T11:57:45.765Z,9.64
2022-11-06T11:58:44.722Z,9.61
2022-11-06T11:59:44.722Z,9.64
2022-11-06T12:00:44.713Z,9.68
2022-11-06T12:01:44.763Z,9.72
2022-11-06T12:02:44.757Z,9.76
2022-11-06T12:03:44.705Z,9.74
2022-11-06T12:04:44.650Z,9.76
2022-11-06T12:05:44.645Z,9.83
2022-11-06T12:06:44.671Z,9.86
2022-11-06T12:07:46.454Z,9.86
2022-11-06T12:08:44.611Z,9.83
2022-11-06T12:09:44.598Z,9.91
2022-11-06T12:10:44.580Z,9.87
2022-11-06T12:11:44.595Z,9.84
2022-11-06T12:12:44.579Z,9.86
2022-11-06T12:13:44.569Z,9.86
2022-11-06T12:14:44.536Z,9.79
2022-11-06T12:15:44.577Z,9.74
2022-11-06T12:16:44.515Z,9.74
2022-11-06T12:17:44.516Z,9.64
2022-11-06T12:18:44.513Z,9.64
2022-11-06T12:19:46.168Z,9.61
2022-11-06T12:20:44.490Z,9.60
2022-11-06T12:21:44.458Z,9.60
2022-11-06T12:22:44.504Z,9.60
2022-11-06T12:23:44.486Z,9.50
2022-11-06T12:24:44.442Z,9.31
2022-11-06T12:25:44.411Z,9.28
2022-11-06T12:26:44.400Z,9.21
2022-11-06T12:27:44.415Z,9.21
2022-11-06T12:28:44.438Z,9.20
2022-11-06T12:29:44.364Z,9.24
2022-11-06T12:30:44.351Z,9.23
2022-11-06T12:31:44.374Z,9.15
2022-11-06T12:32:44.548Z,9.17
2022-11-06T12:34:05.768Z,9.11
2022-11-06T12:34:45.307Z,9.05
2022-11-06T12:35:44.321Z,9.04
2022-11-06T12:36:44.285Z,9.13
2022-11-06T12:37:44.274Z,9.04
2022-11-06T12:38:44.316Z,8.99
2022-11-06T12:39:44.356Z,8.95
2022-11-06T12:40:44.258Z,9.01
2022-11-06T12:41:44.226Z,9.02
2022-11-06T12:42:44.247Z,8.99
2022-11-06T12:43:44.246Z,8.99
2022-11-06T12:44:44.222Z,8.87
2022-11-06T12:45:44.182Z,8.92
2022-11-06T12:46:44.171Z,8.98
2022-11-06T12:47:44.184Z,8.89
2022-11-06T12:48:44.174Z,8.94
2022-11-06T12:49:44.184Z,8.95
2022-11-06T12:50:44.134Z,8.95
2022-11-06T12:51:44.140Z,8.92
2022-11-06T12:52:44.103Z,8.98
2022-11-06T12:53:44.094Z,9.01
2022-11-06T12:54:44.080Z,8.89
2022-11-06T12:55:44.093Z,8.83
2022-11-06T12:56:44.077Z,8.83
2022-11-06T12:57:44.049Z,8.86
2022-11-06T12:58:44.031Z,8.81
2022-11-06T12:59:44.018Z,8.91
2022-11-06T13:00:44.005Z,8.79
2022-11-06T13:01:44.171Z,8.86
2022-11-06T13:02:44.122Z,8.84
2022-11-06T13:03:43.979Z,8.86
2022-11-06T13:04:43.991Z,8.84
2022-11-06T13:05:43.953Z,8.95
2022-11-06T13:06:44.003Z,8.95
2022-11-06T13:07:43.951Z,8.94
2022-11-06T13:08:43.926Z,8.96
2022-11-06T13:09:43.915Z,8.92
2022-11-06T13:10:43.913Z,8.89
2022-11-06T13:11:43.899Z,8.84
2022-11-06T13:12:43.876Z,8.86
2022-11-06T13:13:43.878Z,8.86
2022-11-06T13:14:43.855Z,8.84
2022-11-06T13:15:43.934Z,8.83
2022-11-06T13:16:43.886Z,8.81
2022-11-06T13:17:43.835Z,8.81
2022-11-06T13:18:43.828Z,8.87
2022-11-06T13:19:43.822Z,8.80
2022-11-06T13:20:43.831Z,8.80